sensor_id;sensor_type;location;lat;lon;timestamp;P1;durP1;ratioP1;P2;durP2;ratioP2
6432;SDS011;3249;42.690;23.260;2024-02-23T00:02:07;13.93;;;11.63;;
6432;SDS011;3249;42.690;23.260;2024-02-23T00:04:33;10.80;;;9.33;;
6432;SDS011;3249;42.690;23.260;2024-02-23T00:07:02;11.17;;;9.50;;
6432;SDS011;3249;42.690;23.260;2024-02-23T00:09:31;11.17;;;9.13;;
6432;SDS011;3249;42.690;23.260;2024-02-23T00:12:00;12.03;;;9.47;;
6432;SDS011;3249;42.690;23.260;2024-02-23T00:14:32;13.23;;;9.80;;
6432;SDS011;3249;42.690;23.260;2024-02-23T00:17:01;12.10;;;10.27;;
6432;SDS011;3249;42.690;23.260;2024-02-23T00:19:31;11.77;;;9.60;;
6432;SDS011;3249;42.690;23.260;2024-02-23T00:22:01;10.53;;;9.30;;
6432;SDS011;3249;42.690;23.260;2024-02-23T00:24:30;11.00;;;9.60;;
6432;SDS011;3249;42.690;23.260;2024-02-23T00:27:00;13.30;;;9.90;;
6432;SDS011;3249;42.690;23.260;2024-02-23T00:29:34;11.50;;;9.83;;
6432;SDS011;3249;42.690;23.260;2024-02-23T00:32:06;12.43;;;9.93;;
6432;SDS011;3249;42.690;23.260;2024-02-23T00:34:36;10.67;;;9.57;;
6432;SDS011;3249;42.690;23.260;2024-02-23T00:37:05;10.20;;;8.77;;
6432;SDS011;3249;42.690;23.260;2024-02-23T00:39:35;12.77;;;8.90;;
6432;SDS011;3249;42.690;23.260;2024-02-23T00:42:04;11.23;;;8.50;;
6432;SDS011;3249;42.690;23.260;2024-02-23T00:44:37;11.07;;;9.80;;
6432;SDS011;3249;42.690;23.260;2024-02-23T00:47:06;10.70;;;8.67;;
6432;SDS011;3249;42.690;23.260;2024-02-23T00:49:36;10.33;;;7.87;;
6432;SDS011;3249;42.690;23.260;2024-02-23T00:52:05;10.10;;;8.63;;
6432;SDS011;3249;42.690;23.260;2024-02-23T00:54:34;9.53;;;8.60;;
6432;SDS011;3249;42.690;23.260;2024-02-23T00:57:04;11.13;;;8.80;;
6432;SDS011;3249;42.690;23.260;2024-02-23T00:59:33;10.93;;;9.83;;
6432;SDS011;3249;42.690;23.260;2024-02-23T01:02:06;12.80;;;8.87;;
6432;SDS011;3249;42.690;23.260;2024-02-23T01:04:35;12.03;;;9.53;;
6432;SDS011;3249;42.690;23.260;2024-02-23T01:07:05;9.80;;;8.77;;
6432;SDS011;3249;42.690;23.260;2024-02-23T01:09:34;13.07;;;10.17;;
6432;SDS011;3249;42.690;23.260;2024-02-23T01:12:04;10.40;;;9.00;;
6432;SDS011;3249;42.690;23.260;2024-02-23T01:14:37;10.50;;;8.97;;
6432;SDS011;3249;42.690;23.260;2024-02-23T01:17:06;9.73;;;8.70;;
6432;SDS011;3249;42.690;23.260;2024-02-23T01:19:35;10.40;;;9.40;;
6432;SDS011;3249;42.690;23.260;2024-02-23T01:22:05;9.83;;;8.83;;
6432;SDS011;3249;42.690;23.260;2024-02-23T01:24:34;9.50;;;8.47;;
6432;SDS011;3249;42.690;23.260;2024-02-23T01:27:03;11.60;;;9.80;;
6432;SDS011;3249;42.690;23.260;2024-02-23T01:29:34;9.27;;;8.47;;
6432;SDS011;3249;42.690;23.260;2024-02-23T01:32:06;9.00;;;8.10;;
6432;SDS011;3249;42.690;23.260;2024-02-23T01:34:35;9.57;;;8.57;;
6432;SDS011;3249;42.690;23.260;2024-02-23T01:37:04;10.40;;;8.50;;
6432;SDS011;3249;42.690;23.260;2024-02-23T01:39:34;11.47;;;9.53;;
6432;SDS011;3249;42.690;23.260;2024-02-23T01:42:04;10.63;;;9.53;;
6432;SDS011;3249;42.690;23.260;2024-02-23T01:44:33;10.37;;;8.63;;
6432;SDS011;3249;42.690;23.260;2024-02-23T01:47:06;12.47;;;10.30;;
6432;SDS011;3249;42.690;23.260;2024-02-23T01:49:35;13.57;;;10.40;;
6432;SDS011;3249;42.690;23.260;2024-02-23T01:52:05;13.10;;;10.67;;
6432;SDS011;3249;42.690;23.260;2024-02-23T01:54:34;10.80;;;9.80;;
6432;SDS011;3249;42.690;23.260;2024-02-23T01:57:04;11.17;;;9.90;;
6432;SDS011;3249;42.690;23.260;2024-02-23T01:59:35;16.40;;;11.13;;
6432;SDS011;3249;42.690;23.260;2024-02-23T02:02:09;11.03;;;9.80;;
6432;SDS011;3249;42.690;23.260;2024-02-23T02:04:38;12.17;;;10.20;;
6432;SDS011;3249;42.690;23.260;2024-02-23T02:07:08;15.27;;;10.97;;
6432;SDS011;3249;42.690;23.260;2024-02-23T02:09:38;12.47;;;10.87;;
6432;SDS011;3249;42.690;23.260;2024-02-23T02:12:08;12.30;;;10.67;;
6432;SDS011;3249;42.690;23.260;2024-02-23T02:14:37;11.67;;;10.47;;
6432;SDS011;3249;42.690;23.260;2024-02-23T02:17:09;9.87;;;8.90;;
6432;SDS011;3249;42.690;23.260;2024-02-23T02:19:38;9.13;;;8.20;;
6432;SDS011;3249;42.690;23.260;2024-02-23T02:22:07;12.17;;;9.50;;
6432;SDS011;3249;42.690;23.260;2024-02-23T02:24:38;11.30;;;10.00;;
6432;SDS011;3249;42.690;23.260;2024-02-23T02:27:09;9.67;;;8.57;;
6432;SDS011;3249;42.690;23.260;2024-02-23T02:29:38;11.93;;;9.77;;
6432;SDS011;3249;42.690;23.260;2024-02-23T02:32:10;10.97;;;9.77;;
6432;SDS011;3249;42.690;23.260;2024-02-23T02:34:40;11.53;;;10.30;;
6432;SDS011;3249;42.690;23.260;2024-02-23T02:37:09;11.73;;;9.43;;
6432;SDS011;3249;42.690;23.260;2024-02-23T02:39:38;10.50;;;9.20;;
6432;SDS011;3249;42.690;23.260;2024-02-23T02:42:08;11.17;;;9.00;;
6432;SDS011;3249;42.690;23.260;2024-02-23T02:44:37;10.93;;;9.40;;
6432;SDS011;3249;42.690;23.260;2024-02-23T02:47:10;10.13;;;9.03;;
6432;SDS011;3249;42.690;23.260;2024-02-23T02:49:40;13.03;;;10.33;;
6432;SDS011;3249;42.690;23.260;2024-02-23T02:52:09;10.90;;;9.80;;
6432;SDS011;3249;42.690;23.260;2024-02-23T02:54:38;13.10;;;10.67;;
6432;SDS011;3249;42.690;23.260;2024-02-23T02:57:07;10.73;;;9.73;;
6432;SDS011;3249;42.690;23.260;2024-02-23T02:59:37;12.60;;;9.70;;
6432;SDS011;3249;42.690;23.260;2024-02-23T03:02:07;12.00;;;10.40;;
6432;SDS011;3249;42.690;23.260;2024-02-23T03:04:39;13.13;;;10.10;;
6432;SDS011;3249;42.690;23.260;2024-02-23T03:07:16;11.47;;;10.33;;
6432;SDS011;3249;42.690;23.260;2024-02-23T03:09:45;12.60;;;9.73;;
6432;SDS011;3249;42.690;23.260;2024-02-23T03:12:15;12.33;;;10.53;;
6432;SDS011;3249;42.690;23.260;2024-02-23T03:14:45;10.73;;;9.67;;
6432;SDS011;3249;42.690;23.260;2024-02-23T03:17:15;11.93;;;10.63;;
6432;SDS011;3249;42.690;23.260;2024-02-23T03:19:47;13.97;;;10.50;;
6432;SDS011;3249;42.690;23.260;2024-02-23T03:22:17;14.17;;;10.10;;
6432;SDS011;3249;42.690;23.260;2024-02-23T03:24:50;14.20;;;10.07;;
6432;SDS011;3249;42.690;23.260;2024-02-23T03:27:34;13.10;;;11.63;;
6432;SDS011;3249;42.690;23.260;2024-02-23T03:30:04;10.57;;;9.40;;
6432;SDS011;3249;42.690;23.260;2024-02-23T03:32:36;11.60;;;10.23;;
6432;SDS011;3249;42.690;23.260;2024-02-23T03:35:08;11.90;;;10.60;;
6432;SDS011;3249;42.690;23.260;2024-02-23T03:37:38;12.20;;;10.70;;
6432;SDS011;3249;42.690;23.260;2024-02-23T03:40:08;11.03;;;9.93;;
6432;SDS011;3249;42.690;23.260;2024-02-23T03:42:39;13.83;;;10.87;;
6432;SDS011;3249;42.690;23.260;2024-02-23T03:45:08;13.83;;;10.50;;
6432;SDS011;3249;42.690;23.260;2024-02-23T03:47:38;12.63;;;10.70;;
6432;SDS011;3249;42.690;23.260;2024-02-23T03:50:10;13.87;;;10.83;;
6432;SDS011;3249;42.690;23.260;2024-02-23T03:52:39;12.47;;;10.50;;
6432;SDS011;3249;42.690;23.260;2024-02-23T03:55:09;12.90;;;10.77;;
6432;SDS011;3249;42.690;23.260;2024-02-23T03:57:38;12.43;;;10.83;;
6432;SDS011;3249;42.690;23.260;2024-02-23T04:00:08;13.43;;;10.70;;
6432;SDS011;3249;42.690;23.260;2024-02-23T04:02:41;19.37;;;12.47;;
6432;SDS011;3249;42.690;23.260;2024-02-23T04:05:13;15.33;;;11.70;;
6432;SDS011;3249;42.690;23.260;2024-02-23T04:07:42;10.83;;;9.83;;
6432;SDS011;3249;42.690;23.260;2024-02-23T04:10:12;13.33;;;11.10;;
6432;SDS011;3249;42.690;23.260;2024-02-23T04:12:42;14.27;;;11.53;;
6432;SDS011;3249;42.690;23.260;2024-02-23T04:15:11;12.20;;;11.00;;
6432;SDS011;3249;42.690;23.260;2024-02-23T04:17:40;13.80;;;11.40;;
6432;SDS011;3249;42.690;23.260;2024-02-23T04:20:10;15.40;;;12.10;;
6432;SDS011;3249;42.690;23.260;2024-02-23T04:22:42;13.67;;;11.50;;
6432;SDS011;3249;42.690;23.260;2024-02-23T04:25:12;12.83;;;10.90;;
6432;SDS011;3249;42.690;23.260;2024-02-23T04:27:41;12.60;;;11.30;;
6432;SDS011;3249;42.690;23.260;2024-02-23T04:30:11;16.13;;;11.43;;
6432;SDS011;3249;42.690;23.260;2024-02-23T04:32:41;15.73;;;11.47;;
6432;SDS011;3249;42.690;23.260;2024-02-23T04:35:12;15.73;;;12.07;;
6432;SDS011;3249;42.690;23.260;2024-02-23T04:37:43;12.57;;;11.20;;
6432;SDS011;3249;42.690;23.260;2024-02-23T04:40:15;14.93;;;11.60;;
6432;SDS011;3249;42.690;23.260;2024-02-23T04:42:44;15.27;;;12.43;;
6432;SDS011;3249;42.690;23.260;2024-02-23T04:45:13;18.00;;;13.20;;
6432;SDS011;3249;42.690;23.260;2024-02-23T04:47:43;24.80;;;13.73;;
6432;SDS011;3249;42.690;23.260;2024-02-23T04:50:15;19.13;;;12.33;;
6432;SDS011;3249;42.690;23.260;2024-02-23T04:52:45;15.73;;;12.77;;
6432;SDS011;3249;42.690;23.260;2024-02-23T04:55:15;14.33;;;12.60;;
6432;SDS011;3249;42.690;23.260;2024-02-23T04:57:44;14.67;;;12.13;;
6432;SDS011;3249;42.690;23.260;2024-02-23T05:00:14;14.60;;;12.27;;
6432;SDS011;3249;42.690;23.260;2024-02-23T05:02:43;26.37;;;15.77;;
6432;SDS011;3249;42.690;23.260;2024-02-23T05:05:19;18.83;;;14.17;;
6432;SDS011;3249;42.690;23.260;2024-02-23T05:07:48;17.33;;;13.60;;
6432;SDS011;3249;42.690;23.260;2024-02-23T05:10:17;14.70;;;13.20;;
6432;SDS011;3249;42.690;23.260;2024-02-23T05:12:48;15.70;;;12.90;;
6432;SDS011;3249;42.690;23.260;2024-02-23T05:15:19;17.33;;;12.77;;
6432;SDS011;3249;42.690;23.260;2024-02-23T05:17:48;16.37;;;13.13;;
6432;SDS011;3249;42.690;23.260;2024-02-23T05:20:20;23.80;;;13.03;;
6432;SDS011;3249;42.690;23.260;2024-02-23T05:22:49;14.37;;;11.90;;
6432;SDS011;3249;42.690;23.260;2024-02-23T05:25:18;13.77;;;11.43;;
6432;SDS011;3249;42.690;23.260;2024-02-23T05:27:47;21.40;;;12.40;;
6432;SDS011;3249;42.690;23.260;2024-02-23T05:30:18;15.50;;;10.47;;
6432;SDS011;3249;42.690;23.260;2024-02-23T05:32:47;15.07;;;12.43;;
6432;SDS011;3249;42.690;23.260;2024-02-23T05:35:16;18.43;;;12.30;;
6432;SDS011;3249;42.690;23.260;2024-02-23T05:37:48;13.83;;;10.63;;
6432;SDS011;3249;42.690;23.260;2024-02-23T05:40:19;15.63;;;11.90;;
6432;SDS011;3249;42.690;23.260;2024-02-23T05:42:48;16.35;;;10.50;;
6432;SDS011;3249;42.690;23.260;2024-02-23T05:45:18;15.43;;;11.83;;
6432;SDS011;3249;42.690;23.260;2024-02-23T05:47:48;16.87;;;11.63;;
6432;SDS011;3249;42.690;23.260;2024-02-23T05:50:19;13.93;;;10.60;;
6432;SDS011;3249;42.690;23.260;2024-02-23T05:52:49;22.73;;;12.83;;
6432;SDS011;3249;42.690;23.260;2024-02-23T05:55:18;13.50;;;11.53;;
6432;SDS011;3249;42.690;23.260;2024-02-23T05:57:48;16.67;;;12.10;;
6432;SDS011;3249;42.690;23.260;2024-02-23T06:00:18;16.77;;;13.37;;
6432;SDS011;3249;42.690;23.260;2024-02-23T06:02:48;23.97;;;13.53;;
6432;SDS011;3249;42.690;23.260;2024-02-23T06:05:20;20.80;;;12.70;;
6432;SDS011;3249;42.690;23.260;2024-02-23T06:07:51;23.00;;;13.07;;
6432;SDS011;3249;42.690;23.260;2024-02-23T06:10:20;16.67;;;11.93;;
6432;SDS011;3249;42.690;23.260;2024-02-23T06:12:52;15.90;;;12.87;;
6432;SDS011;3249;42.690;23.260;2024-02-23T06:15:30;22.23;;;13.23;;
6432;SDS011;3249;42.690;23.260;2024-02-23T06:18:00;21.50;;;12.00;;
6432;SDS011;3249;42.690;23.260;2024-02-23T06:20:32;15.57;;;12.90;;
6432;SDS011;3249;42.690;23.260;2024-02-23T06:23:01;19.10;;;11.73;;
6432;SDS011;3249;42.690;23.260;2024-02-23T06:25:31;17.30;;;11.00;;
6432;SDS011;3249;42.690;23.260;2024-02-23T06:28:00;19.73;;;11.70;;
6432;SDS011;3249;42.690;23.260;2024-02-23T06:30:30;17.23;;;12.73;;
6432;SDS011;3249;42.690;23.260;2024-02-23T06:32:59;14.53;;;11.93;;
6432;SDS011;3249;42.690;23.260;2024-02-23T06:35:32;18.60;;;12.70;;
6432;SDS011;3249;42.690;23.260;2024-02-23T06:38:02;21.13;;;12.90;;
6432;SDS011;3249;42.690;23.260;2024-02-23T06:40:32;14.67;;;11.90;;
6432;SDS011;3249;42.690;23.260;2024-02-23T06:43:01;22.97;;;13.27;;
6432;SDS011;3249;42.690;23.260;2024-02-23T06:45:30;19.07;;;12.47;;
6432;SDS011;3249;42.690;23.260;2024-02-23T06:48:00;24.07;;;13.40;;
6432;SDS011;3249;42.690;23.260;2024-02-23T06:50:32;23.60;;;12.83;;
6432;SDS011;3249;42.690;23.260;2024-02-23T06:53:01;19.47;;;13.17;;
6432;SDS011;3249;42.690;23.260;2024-02-23T06:55:32;19.20;;;12.87;;
6432;SDS011;3249;42.690;23.260;2024-02-23T06:58:02;16.77;;;13.50;;
6432;SDS011;3249;42.690;23.260;2024-02-23T07:00:33;17.23;;;13.57;;
6432;SDS011;3249;42.690;23.260;2024-02-23T07:03:02;19.57;;;12.83;;
6432;SDS011;3249;42.690;23.260;2024-02-23T07:05:34;18.50;;;13.33;;
6432;SDS011;3249;42.690;23.260;2024-02-23T07:08:04;15.37;;;10.87;;
6432;SDS011;3249;42.690;23.260;2024-02-23T07:10:34;17.57;;;13.47;;
6432;SDS011;3249;42.690;23.260;2024-02-23T07:13:04;17.83;;;13.77;;
6432;SDS011;3249;42.690;23.260;2024-02-23T07:15:33;17.20;;;12.07;;
6432;SDS011;3249;42.690;23.260;2024-02-23T07:18:03;25.33;;;13.27;;
6432;SDS011;3249;42.690;23.260;2024-02-23T07:20:37;22.40;;;12.60;;
6432;SDS011;3249;42.690;23.260;2024-02-23T07:23:07;19.83;;;12.10;;
6432;SDS011;3249;42.690;23.260;2024-02-23T07:25:36;20.30;;;13.30;;
6432;SDS011;3249;42.690;23.260;2024-02-23T07:28:06;22.27;;;13.13;;
6432;SDS011;3249;42.690;23.260;2024-02-23T07:30:35;18.70;;;14.40;;
6432;SDS011;3249;42.690;23.260;2024-02-23T07:33:05;20.17;;;13.43;;
6432;SDS011;3249;42.690;23.260;2024-02-23T07:35:34;20.33;;;12.03;;
6432;SDS011;3249;42.690;23.260;2024-02-23T07:38:05;15.70;;;13.00;;
6432;SDS011;3249;42.690;23.260;2024-02-23T07:40:38;16.83;;;14.07;;
6432;SDS011;3249;42.690;23.260;2024-02-23T07:43:08;26.57;;;14.07;;
6432;SDS011;3249;42.690;23.260;2024-02-23T07:45:38;25.17;;;13.73;;
6432;SDS011;3249;42.690;23.260;2024-02-23T07:48:08;22.87;;;13.77;;
6432;SDS011;3249;42.690;23.260;2024-02-23T07:50:40;17.80;;;13.37;;
6432;SDS011;3249;42.690;23.260;2024-02-23T07:53:09;21.73;;;14.40;;
6432;SDS011;3249;42.690;23.260;2024-02-23T07:55:38;22.17;;;13.77;;
6432;SDS011;3249;42.690;23.260;2024-02-23T07:58:08;21.87;;;15.60;;
6432;SDS011;3249;42.690;23.260;2024-02-23T08:00:37;21.90;;;15.50;;
6432;SDS011;3249;42.690;23.260;2024-02-23T08:03:06;26.67;;;17.20;;
6432;SDS011;3249;42.690;23.260;2024-02-23T08:05:36;23.23;;;14.93;;
6432;SDS011;3249;42.690;23.260;2024-02-23T08:08:08;22.53;;;16.03;;
6432;SDS011;3249;42.690;23.260;2024-02-23T08:10:40;22.23;;;16.17;;
6432;SDS011;3249;42.690;23.260;2024-02-23T08:13:09;24.73;;;15.60;;
6432;SDS011;3249;42.690;23.260;2024-02-23T08:15:38;32.13;;;17.23;;
6432;SDS011;3249;42.690;23.260;2024-02-23T08:18:07;21.27;;;17.87;;
6432;SDS011;3249;42.690;23.260;2024-02-23T08:20:36;22.93;;;17.40;;
6432;SDS011;3249;42.690;23.260;2024-02-23T08:23:10;27.13;;;16.97;;
6432;SDS011;3249;42.690;23.260;2024-02-23T08:25:39;26.63;;;18.93;;
6432;SDS011;3249;42.690;23.260;2024-02-23T08:28:08;31.30;;;22.07;;
6432;SDS011;3249;42.690;23.260;2024-02-23T08:30:37;28.43;;;19.87;;
6432;SDS011;3249;42.690;23.260;2024-02-23T08:33:07;24.90;;;17.37;;
6432;SDS011;3249;42.690;23.260;2024-02-23T08:35:36;30.40;;;21.17;;
6432;SDS011;3249;42.690;23.260;2024-02-23T08:38:06;31.80;;;19.73;;
6432;SDS011;3249;42.690;23.260;2024-02-23T08:40:39;28.87;;;18.90;;
6432;SDS011;3249;42.690;23.260;2024-02-23T08:43:08;21.97;;;16.10;;
6432;SDS011;3249;42.690;23.260;2024-02-23T08:45:37;20.43;;;14.53;;
6432;SDS011;3249;42.690;23.260;2024-02-23T08:48:07;13.97;;;10.50;;
6432;SDS011;3249;42.690;23.260;2024-02-23T08:50:40;15.23;;;12.13;;
6432;SDS011;3249;42.690;23.260;2024-02-23T08:53:12;11.97;;;10.20;;
6432;SDS011;3249;42.690;23.260;2024-02-23T08:55:41;17.00;;;13.80;;
6432;SDS011;3249;42.690;23.260;2024-02-23T08:58:11;12.93;;;8.47;;
6432;SDS011;3249;42.690;23.260;2024-02-23T09:00:40;15.30;;;11.97;;
6432;SDS011;3249;42.690;23.260;2024-02-23T09:03:09;13.63;;;8.03;;
6432;SDS011;3249;42.690;23.260;2024-02-23T09:05:39;9.57;;;8.60;;
6432;SDS011;3249;42.690;23.260;2024-02-23T09:08:09;8.30;;;7.50;;
6432;SDS011;3249;42.690;23.260;2024-02-23T09:10:41;7.83;;;7.13;;
6432;SDS011;3249;42.690;23.260;2024-02-23T09:13:11;9.43;;;7.63;;
6432;SDS011;3249;42.690;23.260;2024-02-23T09:15:41;8.23;;;7.43;;
6432;SDS011;3249;42.690;23.260;2024-02-23T09:18:11;8.93;;;8.13;;
6432;SDS011;3249;42.690;23.260;2024-02-23T09:20:40;12.90;;;7.87;;
6432;SDS011;3249;42.690;23.260;2024-02-23T09:23:09;7.80;;;7.10;;
6432;SDS011;3249;42.690;23.260;2024-02-23T09:25:42;8.43;;;7.73;;
6432;SDS011;3249;42.690;23.260;2024-02-23T09:28:11;9.67;;;8.20;;
6432;SDS011;3249;42.690;23.260;2024-02-23T09:30:40;12.37;;;8.30;;
6432;SDS011;3249;42.690;23.260;2024-02-23T09:33:09;9.43;;;8.43;;
6432;SDS011;3249;42.690;23.260;2024-02-23T09:35:39;7.10;;;6.50;;
6432;SDS011;3249;42.690;23.260;2024-02-23T09:38:08;9.77;;;8.70;;
6432;SDS011;3249;42.690;23.260;2024-02-23T09:40:38;8.17;;;6.73;;
6432;SDS011;3249;42.690;23.260;2024-02-23T09:43:11;7.47;;;6.57;;
6432;SDS011;3249;42.690;23.260;2024-02-23T09:45:43;8.77;;;5.70;;
6432;SDS011;3249;42.690;23.260;2024-02-23T09:48:13;6.53;;;6.00;;
6432;SDS011;3249;42.690;23.260;2024-02-23T09:51:04;9.83;;;6.27;;
6432;SDS011;3249;42.690;23.260;2024-02-23T09:53:35;5.60;;;5.10;;
6432;SDS011;3249;42.690;23.260;2024-02-23T09:56:10;5.33;;;4.73;;
6432;SDS011;3249;42.690;23.260;2024-02-23T09:58:43;7.17;;;5.50;;
6432;SDS011;3249;42.690;23.260;2024-02-23T10:01:13;8.03;;;5.03;;
6432;SDS011;3249;42.690;23.260;2024-02-23T10:03:57;5.27;;;4.40;;
6432;SDS011;3249;42.690;23.260;2024-02-23T10:06:28;4.53;;;4.20;;
6432;SDS011;3249;42.690;23.260;2024-02-23T10:08:59;3.80;;;3.50;;
6432;SDS011;3249;42.690;23.260;2024-02-23T10:11:32;4.53;;;4.17;;
6432;SDS011;3249;42.690;23.260;2024-02-23T10:14:01;4.47;;;4.17;;
6432;SDS011;3249;42.690;23.260;2024-02-23T10:16:30;4.40;;;4.10;;
6432;SDS011;3249;42.690;23.260;2024-02-23T10:18:59;7.77;;;4.50;;
6432;SDS011;3249;42.690;23.260;2024-02-23T10:21:29;5.30;;;4.20;;
6432;SDS011;3249;42.690;23.260;2024-02-23T10:24:01;5.00;;;4.50;;
6432;SDS011;3249;42.690;23.260;2024-02-23T10:26:32;5.53;;;5.03;;
6432;SDS011;3249;42.690;23.260;2024-02-23T10:29:01;4.20;;;3.93;;
6432;SDS011;3249;42.690;23.260;2024-02-23T10:31:31;4.13;;;3.73;;
6432;SDS011;3249;42.690;23.260;2024-02-23T10:34:07;5.40;;;4.63;;
6432;SDS011;3249;42.690;23.260;2024-02-23T10:36:40;3.53;;;3.33;;
6432;SDS011;3249;42.690;23.260;2024-02-23T10:39:11;3.73;;;3.47;;
6432;SDS011;3249;42.690;23.260;2024-02-23T10:41:47;4.40;;;3.80;;
6432;SDS011;3249;42.690;23.260;2024-02-23T10:44:26;3.80;;;3.60;;
6432;SDS011;3249;42.690;23.260;2024-02-23T10:46:57;5.07;;;4.20;;
6432;SDS011;3249;42.690;23.260;2024-02-23T10:49:28;3.80;;;3.50;;
6432;SDS011;3249;42.690;23.260;2024-02-23T10:51:59;6.13;;;3.77;;
6432;SDS011;3249;42.690;23.260;2024-02-23T10:54:32;3.60;;;3.30;;
6432;SDS011;3249;42.690;23.260;2024-02-23T10:57:05;7.47;;;3.73;;
6432;SDS011;3249;42.690;23.260;2024-02-23T10:59:35;3.97;;;3.50;;
6432;SDS011;3249;42.690;23.260;2024-02-23T11:02:04;3.43;;;3.13;;
6432;SDS011;3249;42.690;23.260;2024-02-23T11:04:35;3.70;;;3.50;;
6432;SDS011;3249;42.690;23.260;2024-02-23T11:07:12;4.00;;;3.80;;
6432;SDS011;3249;42.690;23.260;2024-02-23T11:09:42;3.73;;;3.47;;
6432;SDS011;3249;42.690;23.260;2024-02-23T11:12:21;4.10;;;3.80;;
6432;SDS011;3249;42.690;23.260;2024-02-23T11:14:56;3.83;;;3.57;;
6432;SDS011;3249;42.690;23.260;2024-02-23T11:17:27;3.60;;;3.40;;
6432;SDS011;3249;42.690;23.260;2024-02-23T11:19:58;4.37;;;3.97;;
6432;SDS011;3249;42.690;23.260;2024-02-23T11:22:31;4.83;;;3.50;;
6432;SDS011;3249;42.690;23.260;2024-02-23T11:25:03;4.03;;;3.73;;
6432;SDS011;3249;42.690;23.260;2024-02-23T11:27:37;8.03;;;3.97;;
6432;SDS011;3249;42.690;23.260;2024-02-23T11:30:08;7.03;;;3.70;;
6432;SDS011;3249;42.690;23.260;2024-02-23T11:32:39;4.03;;;3.70;;
6432;SDS011;3249;42.690;23.260;2024-02-23T11:35:11;3.87;;;3.67;;
6432;SDS011;3249;42.690;23.260;2024-02-23T11:37:44;4.37;;;3.60;;
6432;SDS011;3249;42.690;23.260;2024-02-23T11:40:14;3.60;;;3.40;;
6432;SDS011;3249;42.690;23.260;2024-02-23T11:42:48;4.47;;;3.80;;
6432;SDS011;3249;42.690;23.260;2024-02-23T11:45:17;8.37;;;3.40;;
6432;SDS011;3249;42.690;23.260;2024-02-23T11:47:48;3.97;;;3.13;;
6432;SDS011;3249;42.690;23.260;2024-02-23T11:50:17;3.83;;;3.60;;
6432;SDS011;3249;42.690;23.260;2024-02-23T11:52:47;9.50;;;3.63;;
6432;SDS011;3249;42.690;23.260;2024-02-23T11:55:18;4.87;;;3.90;;
6432;SDS011;3249;42.690;23.260;2024-02-23T11:57:51;3.67;;;3.47;;
6432;SDS011;3249;42.690;23.260;2024-02-23T12:00:21;3.57;;;3.37;;
6432;SDS011;3249;42.690;23.260;2024-02-23T12:02:52;3.87;;;3.50;;
6432;SDS011;3249;42.690;23.260;2024-02-23T12:05:21;3.50;;;3.30;;
6432;SDS011;3249;42.690;23.260;2024-02-23T12:07:52;3.50;;;3.20;;
6432;SDS011;3249;42.690;23.260;2024-02-23T12:10:22;3.83;;;3.60;;
6432;SDS011;3249;42.690;23.260;2024-02-23T12:12:54;5.47;;;3.50;;
6432;SDS011;3249;42.690;23.260;2024-02-23T12:15:24;3.47;;;3.27;;
6432;SDS011;3249;42.690;23.260;2024-02-23T12:17:57;5.43;;;3.93;;
6432;SDS011;3249;42.690;23.260;2024-02-23T12:20:27;4.60;;;3.33;;
6432;SDS011;3249;42.690;23.260;2024-02-23T12:22:56;3.70;;;3.50;;
6432;SDS011;3249;42.690;23.260;2024-02-23T12:25:25;4.47;;;4.17;;
6432;SDS011;3249;42.690;23.260;2024-02-23T12:27:57;5.40;;;3.80;;
6432;SDS011;3249;42.690;23.260;2024-02-23T12:30:29;3.80;;;3.60;;
6432;SDS011;3249;42.690;23.260;2024-02-23T12:33:03;4.00;;;3.70;;
6432;SDS011;3249;42.690;23.260;2024-02-23T12:35:33;3.40;;;3.20;;
6432;SDS011;3249;42.690;23.260;2024-02-23T12:38:03;3.13;;;3.00;;
6432;SDS011;3249;42.690;23.260;2024-02-23T12:40:33;3.67;;;3.47;;
6432;SDS011;3249;42.690;23.260;2024-02-23T12:43:05;7.50;;;3.43;;
6432;SDS011;3249;42.690;23.260;2024-02-23T12:45:34;3.23;;;2.83;;
6432;SDS011;3249;42.690;23.260;2024-02-23T12:48:04;3.80;;;3.50;;
6432;SDS011;3249;42.690;23.260;2024-02-23T12:50:34;3.80;;;3.50;;
6432;SDS011;3249;42.690;23.260;2024-02-23T12:53:03;3.10;;;2.90;;
6432;SDS011;3249;42.690;23.260;2024-02-23T12:55:32;4.20;;;3.73;;
6432;SDS011;3249;42.690;23.260;2024-02-23T12:58:05;3.27;;;3.10;;
6432;SDS011;3249;42.690;23.260;2024-02-23T13:00:34;3.60;;;3.30;;
6432;SDS011;3249;42.690;23.260;2024-02-23T13:03:04;6.50;;;3.27;;
6432;SDS011;3249;42.690;23.260;2024-02-23T13:05:33;4.23;;;3.90;;
6432;SDS011;3249;42.690;23.260;2024-02-23T13:08:03;3.63;;;3.43;;
6432;SDS011;3249;42.690;23.260;2024-02-23T13:10:33;3.87;;;3.40;;
6432;SDS011;3249;42.690;23.260;2024-02-23T13:13:05;4.27;;;3.93;;
6432;SDS011;3249;42.690;23.260;2024-02-23T13:15:35;3.67;;;3.37;;
6432;SDS011;3249;42.690;23.260;2024-02-23T13:18:05;7.03;;;3.97;;
6432;SDS011;3249;42.690;23.260;2024-02-23T13:20:34;3.83;;;3.63;;
6432;SDS011;3249;42.690;23.260;2024-02-23T13:23:04;3.80;;;3.60;;
6432;SDS011;3249;42.690;23.260;2024-02-23T13:25:35;3.50;;;3.30;;
6432;SDS011;3249;42.690;23.260;2024-02-23T13:28:07;4.53;;;4.17;;
6432;SDS011;3249;42.690;23.260;2024-02-23T13:30:37;5.80;;;3.30;;
6432;SDS011;3249;42.690;23.260;2024-02-23T13:33:06;5.43;;;4.03;;
6432;SDS011;3249;42.690;23.260;2024-02-23T13:35:37;3.93;;;3.63;;
6432;SDS011;3249;42.690;23.260;2024-02-23T13:38:08;4.03;;;3.73;;
6432;SDS011;3249;42.690;23.260;2024-02-23T13:40:37;6.63;;;3.90;;
6432;SDS011;3249;42.690;23.260;2024-02-23T13:43:09;4.30;;;3.90;;
6432;SDS011;3249;42.690;23.260;2024-02-23T13:45:47;5.40;;;4.00;;
6432;SDS011;3249;42.690;23.260;2024-02-23T13:48:17;3.53;;;3.33;;
6432;SDS011;3249;42.690;23.260;2024-02-23T13:50:48;8.10;;;3.27;;
6432;SDS011;3249;42.690;23.260;2024-02-23T13:53:17;4.13;;;3.37;;
6432;SDS011;3249;42.690;23.260;2024-02-23T13:55:47;3.80;;;3.60;;
6432;SDS011;3249;42.690;23.260;2024-02-23T13:58:19;4.20;;;3.73;;
6432;SDS011;3249;42.690;23.260;2024-02-23T14:00:50;4.07;;;3.77;;
6432;SDS011;3249;42.690;23.260;2024-02-23T14:03:19;4.13;;;3.60;;
6432;SDS011;3249;42.690;23.260;2024-02-23T14:05:48;7.77;;;4.17;;
6432;SDS011;3249;42.690;23.260;2024-02-23T14:08:18;4.30;;;3.90;;
6432;SDS011;3249;42.690;23.260;2024-02-23T14:10:47;3.70;;;3.33;;
6432;SDS011;3249;42.690;23.260;2024-02-23T14:13:19;5.00;;;4.20;;
6432;SDS011;3249;42.690;23.260;2024-02-23T14:15:49;3.53;;;3.20;;
6432;SDS011;3249;42.690;23.260;2024-02-23T14:18:18;4.73;;;3.60;;
6432;SDS011;3249;42.690;23.260;2024-02-23T14:20:47;4.00;;;3.70;;
6432;SDS011;3249;42.690;23.260;2024-02-23T14:23:17;3.90;;;3.60;;
6432;SDS011;3249;42.690;23.260;2024-02-23T14:25:54;3.40;;;3.20;;
6432;SDS011;3249;42.690;23.260;2024-02-23T14:28:27;4.87;;;4.27;;
6432;SDS011;3249;42.690;23.260;2024-02-23T14:30:56;3.70;;;3.40;;
6432;SDS011;3249;42.690;23.260;2024-02-23T14:33:26;4.23;;;4.03;;
6432;SDS011;3249;42.690;23.260;2024-02-23T14:35:55;3.83;;;3.63;;
6432;SDS011;3249;42.690;23.260;2024-02-23T14:38:24;4.37;;;3.97;;
6432;SDS011;3249;42.690;23.260;2024-02-23T14:40:54;4.50;;;4.00;;
6432;SDS011;3249;42.690;23.260;2024-02-23T14:43:24;4.10;;;3.80;;
6432;SDS011;3249;42.690;23.260;2024-02-23T14:45:56;4.00;;;3.77;;
6432;SDS011;3249;42.690;23.260;2024-02-23T14:48:25;7.63;;;4.07;;
6432;SDS011;3249;42.690;23.260;2024-02-23T14:50:54;4.43;;;4.03;;
6432;SDS011;3249;42.690;23.260;2024-02-23T14:53:24;4.53;;;4.17;;
6432;SDS011;3249;42.690;23.260;2024-02-23T14:55:53;7.07;;;3.83;;
6432;SDS011;3249;42.690;23.260;2024-02-23T14:58:23;4.77;;;4.23;;
6432;SDS011;3249;42.690;23.260;2024-02-23T15:00:55;4.67;;;4.27;;
6432;SDS011;3249;42.690;23.260;2024-02-23T15:03:25;4.13;;;3.83;;
6432;SDS011;3249;42.690;23.260;2024-02-23T15:05:55;3.80;;;3.60;;
6432;SDS011;3249;42.690;23.260;2024-02-23T15:08:24;4.50;;;4.20;;